< < Back
Terminal Aerodrome Forecast


Current Version              Previous Versions:   1  2  3  4  5  6  7  8  9  

Terminal Aerodrome Forecast

183
FTUS42 KCHS 172300
TAFSAV
TAF
KSAV 172321Z 1800/1824 11010KT P6SM BKN060
     FM180300 07008KT P6SM SCT060
     FM180800 04010KT P6SM SCT020 BKN040
     FM181000 04012KT P6SM SCT015 BKN025
     FM181500 05013G20KT P6SM OVC025
     FM182000 08010KT 4SM -RA BR SCT020 BKN030=

Latest METAR

647
SAUS80 KWBC 180300 RRA
MTRSAV
METAR KSAV 180253Z 07009KT 10SM OVC250 16/10 A3034 RMK AO2 SLP272
T01560100 50002


USA.gov is the U.S. government's official web portal to all federal, state and local government web resources and services.